createdAt,value
2022-11-22T00:00:17.534Z,-0.7
2022-11-22T00:01:33.847Z,-0.7
2022-11-22T00:02:50.125Z,-0.6
2022-11-22T00:04:05.435Z,-0.6
2022-11-22T00:05:21.734Z,-0.6
2022-11-22T00:06:38.024Z,-0.6
2022-11-22T00:07:54.312Z,-0.6
2022-11-22T00:09:10.607Z,-0.6
2022-11-22T00:10:26.909Z,-0.6
2022-11-22T00:11:43.207Z,-0.6
2022-11-22T00:12:59.487Z,-0.6
2022-11-22T00:14:15.781Z,-0.6
2022-11-22T00:15:32.079Z,-0.6
2022-11-22T00:16:48.387Z,-0.6
2022-11-22T00:18:04.000Z,-0.6
2022-11-22T00:19:20.960Z,-0.6
2022-11-22T00:20:37.377Z,-0.6
2022-11-22T00:21:53.679Z,-0.6
2022-11-22T00:23:09.971Z,-0.6
2022-11-22T00:24:26.260Z,-0.6
2022-11-22T00:25:42.543Z,-0.6
2022-11-22T00:26:58.856Z,-0.6
2022-11-22T00:28:15.138Z,-0.6
2022-11-22T00:29:31.439Z,-0.6
2022-11-22T00:30:47.727Z,-0.6
2022-11-22T00:32:04.025Z,-0.6
2022-11-22T00:33:20.324Z,-0.6
2022-11-22T00:34:36.615Z,-0.6
2022-11-22T00:35:52.903Z,-0.6
2022-11-22T00:37:08.212Z,-0.6
2022-11-22T00:38:24.496Z,-0.6
2022-11-22T00:39:40.790Z,-0.6
2022-11-22T00:40:57.099Z,-0.7
2022-11-22T00:42:13.390Z,-0.6
2022-11-22T00:43:29.691Z,-0.7
2022-11-22T00:44:45.979Z,-0.7
2022-11-22T00:46:02.267Z,-0.7
2022-11-22T00:47:18.561Z,-0.7
2022-11-22T00:48:34.859Z,-0.7
2022-11-22T00:49:51.148Z,-0.7
2022-11-22T00:51:07.443Z,-0.7
2022-11-22T00:52:23.742Z,-0.7
2022-11-22T00:53:39.036Z,-0.7
2022-11-22T00:54:55.337Z,-0.7
2022-11-22T00:56:11.630Z,-0.7
2022-11-22T00:57:27.915Z,-0.8
2022-11-22T00:58:44.228Z,-0.7
2022-11-22T01:00:00.512Z,-0.7
2022-11-22T01:01:16.813Z,-0.8
2022-11-22T01:02:33.101Z,-0.8
2022-11-22T01:03:49.394Z,-0.8
2022-11-22T01:05:05.698Z,-0.8
2022-11-22T01:06:21.985Z,-0.8
2022-11-22T01:07:38.266Z,-0.8
2022-11-22T01:08:54.559Z,-0.8
2022-11-22T01:10:09.870Z,-0.8
2022-11-22T01:11:26.173Z,-0.7
2022-11-22T01:12:42.463Z,-0.7
2022-11-22T01:13:58.763Z,-0.7
2022-11-22T01:15:15.054Z,-0.7
2022-11-22T01:16:31.355Z,-0.8
2022-11-22T01:17:47.634Z,-0.8
2022-11-22T01:19:03.944Z,-0.7
2022-11-22T01:20:20.225Z,-0.8
2022-11-22T01:21:36.525Z,-0.8
2022-11-22T01:22:52.821Z,-0.8
2022-11-22T01:24:09.103Z,-0.8
2022-11-22T01:25:25.395Z,-0.8
2022-11-22T01:26:40.720Z,-0.8
2022-11-22T01:27:57.006Z,-0.7
2022-11-22T01:29:13.297Z,-0.7
2022-11-22T01:30:29.603Z,-0.7
2022-11-22T01:31:45.892Z,-0.8
2022-11-22T01:33:02.187Z,-0.7
2022-11-22T01:34:18.481Z,-0.7
2022-11-22T01:35:34.760Z,-0.7
2022-11-22T01:36:51.069Z,-0.7
2022-11-22T01:39:23.643Z,-0.7
2022-11-22T01:40:39.940Z,-0.6
2022-11-22T01:41:56.243Z,-0.6
2022-11-22T01:43:11.542Z,-0.6
2022-11-22T01:44:27.832Z,-0.6
2022-11-22T01:45:44.132Z,-0.5
2022-11-22T01:47:00.424Z,-0.5
2022-11-22T01:48:16.718Z,-0.5
2022-11-22T01:49:33.014Z,-0.5
2022-11-22T01:50:49.305Z,-0.5
2022-11-22T01:52:05.610Z,-0.5
2022-11-22T01:53:21.898Z,-0.5
2022-11-22T01:54:38.196Z,-0.5
2022-11-22T01:55:54.471Z,-0.5
2022-11-22T01:57:10.775Z,-0.5
2022-11-22T01:58:27.079Z,-0.5
2022-11-22T01:59:42.375Z,-0.5
2022-11-22T02:00:58.678Z,-0.5
2022-11-22T02:02:14.965Z,-0.5
2022-11-22T02:03:31.256Z,-0.6
2022-11-22T02:04:47.558Z,-0.6
2022-11-22T02:06:03.850Z,-0.6
2022-11-22T02:07:20.130Z,-0.5
2022-11-22T02:09:52.688Z,-0.6
2022-11-22T02:11:08.989Z,-0.6
2022-11-22T02:12:25.270Z,-0.6
2022-11-22T02:13:41.569Z,-0.5
2022-11-22T02:14:57.863Z,-0.6
2022-11-22T02:16:13.178Z,-0.5
2022-11-22T02:17:29.472Z,-0.5
2022-11-22T02:18:45.748Z,-0.5
2022-11-22T02:20:02.047Z,-0.6
2022-11-22T02:21:18.350Z,-0.5
2022-11-22T02:22:34.644Z,-0.5
2022-11-22T02:25:07.224Z,-0.5
2022-11-22T02:26:23.508Z,-0.5
2022-11-22T02:27:39.816Z,-0.5
2022-11-22T02:28:56.098Z,-0.5
2022-11-22T02:30:12.393Z,-0.5
2022-11-22T02:31:28.694Z,-0.5
2022-11-22T02:32:44.011Z,-0.4
2022-11-22T02:34:00.304Z,-0.4
2022-11-22T02:35:16.579Z,-0.4
2022-11-22T02:36:32.886Z,-0.4
2022-11-22T02:37:49.165Z,-0.3
2022-11-22T02:39:05.474Z,-0.3
2022-11-22T02:40:20.792Z,-0.3
2022-11-22T02:41:37.074Z,-0.3
2022-11-22T02:42:53.379Z,-0.2
2022-11-22T02:44:09.663Z,-0.2
2022-11-22T02:45:25.953Z,-0.3
2022-11-22T02:46:42.245Z,-0.2
2022-11-22T02:47:58.554Z,-0.2
2022-11-22T02:49:14.845Z,-0.1
2022-11-22T02:50:31.138Z,-0.1
2022-11-22T02:51:47.418Z,-0.1
2022-11-22T02:53:03.718Z,-0.1
2022-11-22T02:54:20.014Z,-0.1
2022-11-22T02:55:36.306Z,-0.1
2022-11-22T02:56:51.608Z,-0.1
2022-11-22T02:58:07.903Z,-0.1
2022-11-22T02:59:24.198Z,0
2022-11-22T03:00:40.501Z,0
2022-11-22T03:01:56.800Z,0
2022-11-22T03:03:13.080Z,0
2022-11-22T03:04:29.368Z,0
2022-11-22T03:05:45.666Z,0
2022-11-22T03:07:01.970Z,0
2022-11-22T03:08:18.261Z,0
2022-11-22T03:09:34.545Z,0.1
2022-11-22T03:10:50.855Z,0.1
2022-11-22T03:12:07.134Z,0.1
2022-11-22T03:13:22.458Z,0.1
2022-11-22T03:14:38.734Z,0.1
2022-11-22T03:15:55.029Z,0.1
2022-11-22T03:17:11.323Z,0.1
2022-11-22T03:18:27.619Z,0.1
2022-11-22T03:19:43.921Z,0.1
2022-11-22T03:21:00.208Z,0.1
2022-11-22T03:22:16.512Z,0.1
2022-11-22T03:23:32.805Z,0.1
2022-11-22T03:24:49.097Z,0.2
2022-11-22T03:26:05.388Z,0.2
2022-11-22T03:27:21.676Z,0.1
2022-11-22T03:28:37.978Z,0.2
2022-11-22T03:29:53.273Z,0.1
2022-11-22T03:31:09.569Z,0.2
2022-11-22T03:32:25.869Z,0.2
2022-11-22T03:33:42.154Z,0.2
2022-11-22T03:34:58.455Z,0.2
2022-11-22T03:36:14.754Z,0.2
2022-11-22T03:37:31.032Z,0.2
2022-11-22T03:38:47.337Z,0.2
2022-11-22T03:40:03.638Z,0.2
2022-11-22T03:41:19.921Z,0.2
2022-11-22T03:42:36.219Z,0.2
2022-11-22T03:43:52.506Z,0.2
2022-11-22T03:45:08.806Z,0.1
2022-11-22T03:46:24.105Z,0.2
2022-11-22T03:47:40.405Z,0.2
2022-11-22T03:48:56.695Z,0.2
2022-11-22T03:50:12.996Z,0.2
2022-11-22T03:51:29.291Z,0.2
2022-11-22T03:52:45.572Z,0.2
2022-11-22T03:54:01.870Z,0.2
2022-11-22T03:55:18.161Z,0.2
2022-11-22T03:56:34.463Z,0.2
2022-11-22T03:57:50.752Z,0.2
2022-11-22T03:59:07.048Z,0.2
2022-11-22T04:00:23.338Z,0.2
2022-11-22T04:01:39.626Z,0.2
2022-11-22T04:02:54.941Z,0.2
2022-11-22T04:04:11.233Z,0.2
2022-11-22T04:05:27.523Z,0.2
2022-11-22T04:06:43.826Z,0.2
2022-11-22T04:08:00.126Z,0.2
2022-11-22T04:09:16.402Z,0.3
2022-11-22T04:10:32.710Z,0.2
2022-11-22T04:11:48.993Z,0.2
2022-11-22T04:13:05.283Z,0.2
2022-11-22T04:14:21.588Z,0.3
2022-11-22T04:15:37.877Z,0.3
2022-11-22T04:16:54.174Z,0.3
2022-11-22T04:18:10.465Z,0.3
2022-11-22T04:19:25.769Z,0.3
2022-11-22T04:20:42.069Z,0.3
2022-11-22T04:21:58.358Z,0.3
2022-11-22T04:23:14.646Z,0.3
2022-11-22T04:24:30.957Z,0.3
2022-11-22T04:25:47.233Z,0.3
2022-11-22T04:27:03.526Z,0.3
2022-11-22T04:28:19.832Z,0.3
2022-11-22T04:29:36.119Z,0.3
2022-11-22T04:30:52.417Z,0.3
2022-11-22T04:32:08.714Z,0.3
2022-11-22T04:33:25.014Z,0.3
2022-11-22T04:34:41.287Z,0.3
2022-11-22T04:35:56.600Z,0.3
2022-11-22T04:37:12.902Z,0.3
2022-11-22T04:38:29.202Z,0.3
2022-11-22T04:39:45.497Z,0.3
2022-11-22T04:41:01.783Z,0.3
2022-11-22T04:42:18.072Z,0.3
2022-11-22T04:43:34.365Z,0.3
2022-11-22T04:44:50.657Z,0.3
2022-11-22T04:46:06.954Z,0.3
2022-11-22T04:47:23.243Z,0.3
2022-11-22T04:48:39.544Z,0.3
2022-11-22T04:49:55.833Z,0.3
2022-11-22T04:51:12.136Z,0.3
2022-11-22T04:52:27.434Z,0.4
2022-11-22T04:53:43.742Z,0.3
2022-11-22T04:55:00.025Z,0.3
2022-11-22T04:56:16.309Z,0.4
2022-11-22T04:57:32.603Z,0.3
2022-11-22T04:58:48.909Z,0.4
2022-11-22T05:00:05.196Z,0.4
2022-11-22T05:01:21.491Z,0.3
2022-11-22T05:02:37.786Z,0.4
2022-11-22T05:03:54.086Z,0.4
2022-11-22T05:05:10.383Z,0.4
2022-11-22T05:06:26.666Z,0.4
2022-11-22T05:07:42.965Z,0.4
2022-11-22T05:08:58.279Z,0.4
2022-11-22T05:10:14.562Z,0.4
2022-11-22T05:11:30.850Z,0.4
2022-11-22T05:12:47.146Z,0.4
2022-11-22T05:14:03.442Z,0.4
2022-11-22T05:15:19.727Z,0.4
2022-11-22T05:16:36.031Z,0.4
2022-11-22T05:17:52.335Z,0.4
2022-11-22T05:19:08.620Z,0.4
2022-11-22T05:20:24.905Z,0.4
2022-11-22T05:21:41.194Z,0.4
2022-11-22T05:22:57.498Z,0.4
2022-11-22T05:24:13.801Z,0.5
2022-11-22T05:25:29.109Z,0.4
2022-11-22T05:26:45.389Z,0.4
2022-11-22T05:28:01.690Z,0.4
2022-11-22T05:29:17.982Z,0.4
2022-11-22T05:30:34.271Z,0.4
2022-11-22T05:31:50.559Z,0.5
2022-11-22T05:33:06.870Z,0.4
2022-11-22T05:34:23.151Z,0.4
2022-11-22T05:35:39.455Z,0.5
2022-11-22T05:36:55.748Z,0.4
2022-11-22T05:38:12.046Z,0.4
2022-11-22T05:39:28.335Z,0.4
2022-11-22T05:40:44.618Z,0.5
2022-11-22T05:41:59.940Z,0.5
2022-11-22T05:43:16.231Z,0.5
2022-11-22T05:44:32.512Z,0.5
2022-11-22T05:45:48.804Z,0.5
2022-11-22T05:47:05.111Z,0.5
2022-11-22T05:48:21.398Z,0.5
2022-11-22T05:49:37.698Z,0.5
2022-11-22T05:50:53.985Z,0.5
2022-11-22T05:52:10.278Z,0.5
2022-11-22T05:53:26.570Z,0.5
2022-11-22T05:54:42.863Z,0.4
2022-11-22T05:55:59.154Z,0.5
2022-11-22T05:57:15.452Z,0.5
2022-11-22T05:58:30.773Z,0.5
2022-11-22T05:59:47.054Z,0.5
2022-11-22T06:01:03.354Z,0.5
2022-11-22T06:02:19.642Z,0.5
2022-11-22T06:03:35.885Z,0.5
2022-11-22T06:04:52.183Z,0.5
2022-11-22T06:06:08.474Z,0.5
2022-11-22T06:07:24.726Z,0.5
2022-11-22T06:08:40.967Z,0.5
2022-11-22T06:09:57.252Z,0.5
2022-11-22T06:11:13.557Z,0.5
2022-11-22T06:12:29.789Z,0.5
2022-11-22T06:13:46.040Z,0.5
2022-11-22T06:15:01.351Z,0.5
2022-11-22T06:16:17.600Z,0.5
2022-11-22T06:17:33.841Z,0.5
2022-11-22T06:18:50.078Z,0.5
2022-11-22T06:20:06.310Z,0.4
2022-11-22T06:21:22.563Z,0.5
2022-11-22T06:22:38.804Z,0.5
2022-11-22T06:23:55.036Z,0.5
2022-11-22T06:25:11.273Z,0.5
2022-11-22T06:26:27.510Z,0.5
2022-11-22T06:27:43.760Z,0.5
2022-11-22T06:28:59.990Z,0.5
2022-11-22T06:30:16.229Z,0.5
2022-11-22T06:31:31.493Z,0.5
2022-11-22T06:32:47.719Z,0.5
2022-11-22T06:34:03.974Z,0.5
2022-11-22T06:35:20.199Z,0.5
2022-11-22T06:36:36.457Z,0.5
2022-11-22T06:37:52.684Z,0.5
2022-11-22T06:39:08.927Z,0.5
2022-11-22T06:40:25.167Z,0.5
2022-11-22T06:41:41.402Z,0.5
2022-11-22T06:42:57.637Z,0.5
2022-11-22T06:44:13.874Z,0.5
2022-11-22T06:45:30.130Z,0.5
2022-11-22T06:46:46.369Z,0.5
2022-11-22T06:48:01.625Z,0.5
2022-11-22T06:49:17.853Z,0.6
2022-11-22T06:50:34.093Z,0.6
2022-11-22T06:51:50.331Z,0.5
2022-11-22T06:53:06.585Z,0.6
2022-11-22T06:54:22.824Z,0.6
2022-11-22T06:55:38.080Z,0.6
2022-11-22T06:56:54.313Z,0.6
2022-11-22T06:58:10.562Z,0.6
2022-11-22T06:59:26.788Z,0.6
2022-11-22T07:00:43.040Z,0.6
2022-11-22T07:01:59.280Z,0.6
2022-11-22T07:03:15.523Z,0.6
2022-11-22T07:04:31.760Z,0.6
2022-11-22T07:05:48.000Z,0.6
2022-11-22T07:07:04.238Z,0.7
2022-11-22T07:08:20.472Z,0.7
2022-11-22T07:09:36.700Z,0.7
2022-11-22T07:10:52.941Z,0.7
2022-11-22T07:12:08.209Z,0.7
2022-11-22T07:13:24.441Z,0.8
2022-11-22T07:14:40.687Z,0.8
2022-11-22T07:15:56.928Z,0.8
2022-11-22T07:17:13.159Z,0.8
2022-11-22T07:18:29.398Z,0.8
2022-11-22T07:19:45.638Z,0.8
2022-11-22T07:21:01.879Z,0.8
2022-11-22T07:22:18.130Z,0.8
2022-11-22T07:23:34.355Z,0.8
2022-11-22T07:24:50.589Z,0.8
2022-11-22T07:26:06.831Z,0.8
2022-11-22T07:27:23.082Z,0.8
2022-11-22T07:28:38.343Z,0.8
2022-11-22T07:29:54.583Z,0.8
2022-11-22T07:31:10.811Z,0.8
2022-11-22T07:32:27.049Z,0.9
2022-11-22T07:33:43.297Z,0.9
2022-11-22T07:34:59.541Z,0.9
2022-11-22T07:36:15.766Z,0.9
2022-11-22T07:37:32.005Z,1
2022-11-22T07:38:48.253Z,1
2022-11-22T07:40:04.500Z,1
2022-11-22T07:41:20.734Z,1
2022-11-22T07:42:36.961Z,1
2022-11-22T07:43:53.216Z,1
2022-11-22T07:45:08.457Z,1
2022-11-22T07:46:24.707Z,1
2022-11-22T07:47:40.945Z,1.1
2022-11-22T07:48:57.176Z,1.1
2022-11-22T07:50:13.426Z,1.1
2022-11-22T07:51:29.659Z,1.1
2022-11-22T07:52:45.909Z,1.1
2022-11-22T07:54:02.142Z,1.2
2022-11-22T07:55:18.372Z,1.2
2022-11-22T07:56:34.625Z,1.2
2022-11-22T07:57:50.869Z,1.2
2022-11-22T07:59:07.105Z,1.3
2022-11-22T08:00:23.344Z,1.3
2022-11-22T08:01:38.598Z,1.3
2022-11-22T08:02:54.838Z,1.3
2022-11-22T08:04:11.078Z,1.4
2022-11-22T08:05:27.312Z,1.4
2022-11-22T08:06:43.552Z,1.4
2022-11-22T08:07:59.792Z,1.4
2022-11-22T08:09:16.033Z,1.4
2022-11-22T08:10:32.268Z,1.5
2022-11-22T08:11:48.509Z,1.5
2022-11-22T08:13:04.746Z,1.5
2022-11-22T08:14:20.995Z,1.5
2022-11-22T08:15:37.230Z,1.5
2022-11-22T08:16:53.462Z,1.5
2022-11-22T08:18:08.723Z,1.6
2022-11-22T08:19:24.953Z,1.6
2022-11-22T08:20:41.199Z,1.6
2022-11-22T08:21:57.445Z,1.6
2022-11-22T08:23:13.684Z,1.7
2022-11-22T08:24:29.917Z,1.7
2022-11-22T08:25:46.150Z,1.7
2022-11-22T08:27:02.391Z,1.8
2022-11-22T08:28:18.640Z,1.8
2022-11-22T08:29:34.877Z,1.9
2022-11-22T08:30:51.116Z,1.9
2022-11-22T08:32:07.351Z,2
2022-11-22T08:33:23.590Z,2.1
2022-11-22T08:34:38.839Z,2.1
2022-11-22T08:35:55.084Z,2.2
2022-11-22T08:37:11.324Z,2.3
2022-11-22T08:38:27.566Z,2.3
2022-11-22T08:39:43.804Z,2.4
2022-11-22T08:41:00.042Z,2.4
2022-11-22T08:42:16.288Z,2.5
2022-11-22T08:43:32.516Z,2.5
2022-11-22T08:44:48.772Z,2.5
2022-11-22T08:46:05.005Z,2.6
2022-11-22T08:47:21.248Z,2.6
2022-11-22T08:48:37.483Z,2.6
2022-11-22T08:49:53.725Z,2.6
2022-11-22T08:51:08.979Z,2.6
2022-11-22T08:52:25.214Z,2.6
2022-11-22T08:53:41.455Z,2.6
2022-11-22T08:54:57.686Z,2.6
2022-11-22T08:56:13.924Z,2.6
2022-11-22T08:57:30.166Z,2.7
2022-11-22T08:58:46.414Z,2.7
2022-11-22T09:00:02.639Z,2.7
2022-11-22T09:01:18.897Z,2.7
2022-11-22T09:02:35.120Z,2.8
2022-11-22T09:03:51.373Z,2.8
2022-11-22T09:05:07.613Z,2.8
2022-11-22T09:06:23.846Z,2.9
2022-11-22T09:07:39.095Z,2.8
2022-11-22T09:08:55.332Z,2.9
2022-11-22T09:10:11.581Z,2.8
2022-11-22T09:11:27.821Z,2.9
2022-11-22T09:12:44.056Z,2.8
2022-11-22T09:14:00.301Z,2.8
2022-11-22T09:15:16.533Z,2.8
2022-11-22T09:16:32.780Z,2.8
2022-11-22T09:17:49.024Z,2.9
2022-11-22T09:19:05.247Z,2.8
2022-11-22T09:20:21.498Z,2.8
2022-11-22T09:21:37.727Z,2.9
2022-11-22T09:22:53.961Z,2.9
2022-11-22T09:24:09.229Z,2.8
2022-11-22T09:25:25.464Z,2.9
2022-11-22T09:26:41.706Z,2.9
2022-11-22T09:27:57.937Z,2.9
2022-11-22T09:29:14.179Z,3
2022-11-22T09:30:30.427Z,3
2022-11-22T09:31:46.667Z,3.1
2022-11-22T09:33:02.909Z,3.2
2022-11-22T09:34:19.130Z,3.2
2022-11-22T09:35:35.374Z,3.2
2022-11-22T09:36:51.609Z,3.3
2022-11-22T09:38:07.853Z,3.3
2022-11-22T09:39:24.089Z,3.4
2022-11-22T09:40:39.349Z,3.4
2022-11-22T09:41:55.587Z,3.4
2022-11-22T09:43:11.831Z,3.4
2022-11-22T09:44:28.078Z,3.4
2022-11-22T09:45:44.298Z,3.3
2022-11-22T09:47:00.546Z,3.4
2022-11-22T09:48:16.793Z,3.4
2022-11-22T09:49:33.015Z,3.4
2022-11-22T09:50:49.263Z,3.5
2022-11-22T09:52:05.512Z,3.4
2022-11-22T09:53:21.740Z,3.4
2022-11-22T09:54:37.987Z,3.4
2022-11-22T09:55:54.218Z,3.4
2022-11-22T09:57:09.483Z,3.4
2022-11-22T09:58:25.718Z,3.4
2022-11-22T09:59:41.957Z,3.5
2022-11-22T10:00:58.199Z,3.5
2022-11-22T10:02:14.439Z,3.5
2022-11-22T10:03:30.671Z,3.5
2022-11-22T10:04:46.907Z,3.4
2022-11-22T10:06:03.159Z,3.4
2022-11-22T10:07:19.379Z,3.4
2022-11-22T10:08:35.636Z,3.5
2022-11-22T10:09:51.871Z,3.5
2022-11-22T10:11:08.099Z,3.4
2022-11-22T10:12:24.339Z,3.5
2022-11-22T10:13:39.596Z,3.5
2022-11-22T10:14:55.849Z,3.5
2022-11-22T10:16:12.082Z,3.5
2022-11-22T10:17:28.323Z,3.5
2022-11-22T10:18:44.562Z,3.6
2022-11-22T10:20:00.803Z,3.6
2022-11-22T10:21:17.034Z,3.6
2022-11-22T10:22:33.273Z,3.7
2022-11-22T10:23:49.520Z,3.7
2022-11-22T10:25:05.751Z,3.7
2022-11-22T10:26:21.981Z,3.7
2022-11-22T10:27:38.240Z,3.7
2022-11-22T10:28:54.475Z,3.7
2022-11-22T10:30:09.727Z,3.7
2022-11-22T10:31:25.969Z,3.7
2022-11-22T10:32:42.196Z,3.7
2022-11-22T10:33:58.447Z,3.7
2022-11-22T10:35:14.675Z,3.7
2022-11-22T10:36:30.925Z,3.7
2022-11-22T10:37:47.162Z,3.7
2022-11-22T10:39:03.405Z,3.8
2022-11-22T10:40:19.645Z,3.7
2022-11-22T10:41:35.886Z,3.7
2022-11-22T10:42:52.119Z,3.7
2022-11-22T10:44:08.359Z,3.7
2022-11-22T10:45:24.599Z,3.6
2022-11-22T10:46:39.840Z,3.6
2022-11-22T10:47:56.083Z,3.7
2022-11-22T10:49:12.334Z,3.7
2022-11-22T10:50:28.561Z,3.7
2022-11-22T10:51:44.806Z,3.7
2022-11-22T10:53:01.043Z,3.7
2022-11-22T10:54:17.292Z,3.8
2022-11-22T10:55:33.523Z,3.8
2022-11-22T10:56:49.766Z,3.8
2022-11-22T10:58:05.999Z,3.9
2022-11-22T10:59:22.246Z,4
2022-11-22T11:00:38.490Z,4
2022-11-22T11:01:54.715Z,4
2022-11-22T11:03:09.980Z,4.1
2022-11-22T11:04:26.209Z,4.1
2022-11-22T11:05:42.458Z,4.1
2022-11-22T11:06:58.698Z,4.1
2022-11-22T11:08:14.930Z,4.1
2022-11-22T11:09:31.158Z,4.1
2022-11-22T11:10:46.425Z,4.1
2022-11-22T11:12:02.670Z,4.2
2022-11-22T11:13:18.906Z,4.2
2022-11-22T11:14:35.147Z,4.2
2022-11-22T11:15:51.394Z,4.2
2022-11-22T11:17:07.635Z,4.2
2022-11-22T11:18:23.873Z,4.3
2022-11-22T11:19:40.098Z,4.3
2022-11-22T11:20:56.338Z,4.3
2022-11-22T11:22:12.588Z,4.3
2022-11-22T11:23:28.825Z,4.2
2022-11-22T11:24:45.051Z,4.3
2022-11-22T11:26:01.296Z,4.3
2022-11-22T11:27:16.558Z,4.3
2022-11-22T11:28:32.788Z,4.3
2022-11-22T11:29:49.031Z,4.4
2022-11-22T11:31:05.262Z,4.4
2022-11-22T11:32:21.515Z,4.4
2022-11-22T11:33:37.740Z,4.5
2022-11-22T11:34:53.998Z,4.5
2022-11-22T11:36:10.217Z,4.5
2022-11-22T11:37:26.475Z,4.6
2022-11-22T11:38:42.698Z,4.6
2022-11-22T11:39:58.937Z,4.6
2022-11-22T11:41:15.191Z,4.6
2022-11-22T11:42:31.413Z,4.7
2022-11-22T11:43:46.681Z,4.7
2022-11-22T11:45:02.927Z,4.7
2022-11-22T11:47:35.401Z,4.7
2022-11-22T11:48:51.636Z,4.8
2022-11-22T11:50:07.866Z,4.8
2022-11-22T11:51:24.120Z,4.8
2022-11-22T11:52:40.351Z,4.9
2022-11-22T11:53:56.585Z,4.9
2022-11-22T11:55:12.839Z,4.9
2022-11-22T11:56:29.062Z,4.9
2022-11-22T11:57:45.298Z,4.9
2022-11-22T11:59:01.540Z,4.9
2022-11-22T12:00:16.795Z,4.9
2022-11-22T12:01:33.048Z,4.9
2022-11-22T12:02:49.287Z,4.9
2022-11-22T12:04:05.512Z,4.9
2022-11-22T12:05:21.757Z,4.9
2022-11-22T12:06:37.999Z,4.9
2022-11-22T12:07:54.238Z,4.9
2022-11-22T12:09:10.467Z,4.9
2022-11-22T12:10:26.717Z,4.8
2022-11-22T12:11:42.944Z,4.9
2022-11-22T12:12:59.183Z,4.9
2022-11-22T12:14:15.437Z,4.9
2022-11-22T12:15:31.666Z,4.8
2022-11-22T12:16:46.928Z,4.9
2022-11-22T12:18:03.160Z,4.9
2022-11-22T12:19:19.402Z,4.9
2022-11-22T12:20:35.646Z,4.9
2022-11-22T12:21:51.885Z,5
2022-11-22T12:23:08.125Z,4.9
2022-11-22T12:24:24.369Z,4.9
2022-11-22T12:25:40.594Z,5
2022-11-22T12:26:56.831Z,5
2022-11-22T12:28:13.075Z,5
2022-11-22T12:29:29.310Z,5
2022-11-22T12:30:45.567Z,5
2022-11-22T12:32:01.791Z,5
2022-11-22T12:33:17.054Z,5
2022-11-22T12:34:33.285Z,5
2022-11-22T12:35:49.521Z,5
2022-11-22T12:37:05.779Z,5
2022-11-22T12:38:22.007Z,5
2022-11-22T12:39:38.249Z,5
2022-11-22T12:40:54.477Z,4.9
2022-11-22T12:42:10.727Z,5
2022-11-22T12:43:26.962Z,5
2022-11-22T12:44:43.197Z,5
2022-11-22T12:45:59.443Z,4.9
2022-11-22T12:47:15.682Z,4.9
2022-11-22T12:48:31.921Z,5
2022-11-22T12:49:47.172Z,5
2022-11-22T12:51:03.407Z,5
2022-11-22T12:52:19.649Z,5
2022-11-22T12:53:35.895Z,5
2022-11-22T12:54:52.000Z,5
2022-11-22T12:56:08.377Z,5.1
2022-11-22T12:57:24.621Z,5
2022-11-22T12:58:40.846Z,5.1
2022-11-22T12:59:57.086Z,5.1
2022-11-22T13:01:13.329Z,5.1
2022-11-22T13:02:29.561Z,5.2
2022-11-22T13:03:45.798Z,5.2
2022-11-22T13:05:02.053Z,5.2
2022-11-22T13:06:17.293Z,5.2
2022-11-22T13:07:33.545Z,5.2
2022-11-22T13:08:49.770Z,5.2
2022-11-22T13:10:06.020Z,5.2
2022-11-22T13:11:22.262Z,5.2
2022-11-22T13:12:38.498Z,5.2
2022-11-22T13:13:54.745Z,5.2
2022-11-22T13:15:10.985Z,5.2
2022-11-22T13:16:27.204Z,5.3
2022-11-22T13:17:43.443Z,5.3
2022-11-22T13:18:59.693Z,5.3
2022-11-22T13:20:15.937Z,5.3
2022-11-22T13:27:53.369Z,5.4
2022-11-22T13:29:08.616Z,5.4
2022-11-22T13:30:24.982Z,5.4
2022-11-22T13:31:40.247Z,5.4
2022-11-22T13:32:55.509Z,5.4
2022-11-22T13:34:10.752Z,5.4
2022-11-22T13:35:26.012Z,5.3
2022-11-22T13:36:42.252Z,5.3
2022-11-22T13:37:58.503Z,5.3
2022-11-22T13:39:14.728Z,5.3
2022-11-22T13:40:30.972Z,5.3
2022-11-22T13:41:47.199Z,5.2
2022-11-22T13:43:03.443Z,5.3
2022-11-22T13:44:19.695Z,5.3
2022-11-22T13:45:35.922Z,5.3
2022-11-22T13:46:52.174Z,5.3
2022-11-22T13:48:07.418Z,5.2
2022-11-22T13:49:22.680Z,5.3
2022-11-22T13:50:38.916Z,5.3
2022-11-22T13:51:55.154Z,5.3
2022-11-22T13:53:11.398Z,5.3
2022-11-22T13:54:27.634Z,5.3
2022-11-22T13:55:43.883Z,5.3
2022-11-22T13:57:00.112Z,5.3
2022-11-22T13:58:16.362Z,5.4
2022-11-22T13:59:32.595Z,5.4
2022-11-22T14:00:48.844Z,5.3
2022-11-22T14:02:05.072Z,5.4
2022-11-22T14:03:21.308Z,5.3
2022-11-22T14:04:37.555Z,5.3
2022-11-22T14:05:52.813Z,5.3
2022-11-22T14:07:09.036Z,5.2
2022-11-22T14:08:25.280Z,5.3
2022-11-22T14:09:41.515Z,5.3
2022-11-22T14:10:57.760Z,5.3
2022-11-22T14:12:14.004Z,5.3
2022-11-22T14:13:30.233Z,5.4
2022-11-22T14:14:45.491Z,5.3
2022-11-22T14:16:00.749Z,5.3
2022-11-22T14:17:16.010Z,5.4
2022-11-22T14:18:31.279Z,5.3
2022-11-22T14:19:47.514Z,5.4
2022-11-22T14:21:03.745Z,5.3
2022-11-22T14:22:19.992Z,5.3
2022-11-22T14:23:36.218Z,5.3
2022-11-22T14:24:52.472Z,5.3
2022-11-22T14:26:08.708Z,5.3
2022-11-22T14:27:24.947Z,5.3
2022-11-22T14:28:41.175Z,5.2
2022-11-22T14:29:57.429Z,5.2
2022-11-22T14:31:13.650Z,5.2
2022-11-22T14:32:29.892Z,5.2
2022-11-22T14:33:46.133Z,5.1
2022-11-22T14:35:01.396Z,5.1
2022-11-22T14:36:17.623Z,5.1
2022-11-22T14:37:33.863Z,5.1
2022-11-22T14:38:50.109Z,5.1
2022-11-22T14:40:06.358Z,5.1
2022-11-22T14:41:22.590Z,5
2022-11-22T14:42:38.832Z,5
2022-11-22T14:43:54.087Z,5
2022-11-22T14:45:09.350Z,5
2022-11-22T14:46:24.608Z,4.9
2022-11-22T14:47:39.861Z,4.8
2022-11-22T14:48:56.101Z,4.8
2022-11-22T14:50:12.346Z,4.8
2022-11-22T14:51:28.576Z,4.8
2022-11-22T14:52:44.812Z,4.8
2022-11-22T14:54:01.057Z,4.8
2022-11-22T14:55:17.287Z,4.8
2022-11-22T14:56:33.536Z,4.7
2022-11-22T14:57:49.771Z,4.7
2022-11-22T14:59:06.007Z,4.7
2022-11-22T15:00:22.242Z,4.7
2022-11-22T15:01:38.492Z,4.6
2022-11-22T15:02:54.730Z,4.7
2022-11-22T15:04:09.981Z,4.6
2022-11-22T15:05:26.232Z,4.6
2022-11-22T15:06:42.460Z,4.6
2022-11-22T15:07:58.695Z,4.5
2022-11-22T15:09:14.933Z,4.5
2022-11-22T15:10:31.183Z,4.5
2022-11-22T15:11:47.418Z,4.5
2022-11-22T15:13:02.680Z,4.5
2022-11-22T15:14:17.925Z,4.4
2022-11-22T15:15:34.177Z,4.4
2022-11-22T15:16:50.404Z,4.4
2022-11-22T15:45:58.263Z,4.1
2022-11-22T15:47:14.557Z,4.1
2022-11-22T15:48:30.857Z,4.1
2022-11-22T15:51:03.438Z,4.1
2022-11-22T15:52:19.721Z,4.2
2022-11-22T15:53:36.024Z,4.1
2022-11-22T15:54:52.318Z,4.1
2022-11-22T15:56:08.615Z,4.2
2022-11-22T15:57:24.903Z,4.1
2022-11-22T15:58:41.190Z,4.1
2022-11-22T15:59:57.489Z,4.1
2022-11-22T16:01:13.770Z,4.1
2022-11-22T16:02:29.092Z,4.2
2022-11-22T16:03:45.374Z,4.2
2022-11-22T16:05:01.678Z,4.3
2022-11-22T16:06:17.965Z,4.3
2022-11-22T16:07:34.264Z,4.4
2022-11-22T16:08:50.560Z,4.4
2022-11-22T16:10:06.856Z,4.4
2022-11-22T16:11:23.139Z,4.5
2022-11-22T16:12:38.447Z,4.5
2022-11-22T16:13:53.752Z,4.6
2022-11-22T16:15:10.047Z,4.6
2022-11-22T16:16:26.349Z,4.6
2022-11-22T16:17:42.633Z,4.6
2022-11-22T16:18:58.934Z,4.6
2022-11-22T16:20:15.228Z,4.6
2022-11-22T16:21:31.518Z,4.6
2022-11-22T16:22:47.808Z,4.6
2022-11-22T16:24:04.118Z,4.6
2022-11-22T16:25:20.000Z,4.7
2022-11-22T16:26:36.702Z,4.6
2022-11-22T16:27:52.982Z,4.6
2022-11-22T16:30:25.567Z,4.6
2022-11-22T16:31:40.872Z,4.6
2022-11-22T16:32:57.167Z,4.6
2022-11-22T16:34:13.459Z,4.6
2022-11-22T16:35:29.759Z,4.7
2022-11-22T16:36:46.050Z,4.7
2022-11-22T16:38:02.338Z,4.7
2022-11-22T16:39:18.644Z,4.7
2022-11-22T16:40:33.958Z,4.7
2022-11-22T16:41:49.263Z,4.7
2022-11-22T16:43:05.565Z,4.8
2022-11-22T16:44:21.841Z,4.8
2022-11-22T16:45:38.136Z,4.8
2022-11-22T16:46:54.426Z,4.8
2022-11-22T16:48:10.724Z,4.9
2022-11-22T16:49:27.017Z,4.8
2022-11-22T16:50:43.319Z,4.8
2022-11-22T16:51:59.612Z,4.9
2022-11-22T16:53:15.894Z,4.8
2022-11-22T16:55:48.480Z,4.9
2022-11-22T16:57:04.779Z,4.8
2022-11-22T16:58:20.092Z,4.8
2022-11-22T16:59:36.392Z,4.8
2022-11-22T17:00:52.676Z,4.8
2022-11-22T17:02:08.961Z,4.8
2022-11-22T17:03:25.264Z,4.8
2022-11-22T17:04:41.565Z,4.8
2022-11-22T17:05:57.842Z,4.8
2022-11-22T17:07:14.146Z,4.8
2022-11-22T17:08:30.429Z,4.8
2022-11-22T17:09:46.726Z,4.8
2022-11-22T17:11:03.018Z,4.7
2022-11-22T17:12:19.321Z,4.8
2022-11-22T17:13:35.599Z,4.7
2022-11-22T17:14:50.909Z,4.8
2022-11-22T17:16:07.219Z,4.7
2022-11-22T17:17:23.505Z,4.8
2022-11-22T17:18:39.799Z,4.7
2022-11-22T17:19:56.092Z,4.7
2022-11-22T17:21:12.389Z,4.7
2022-11-22T17:22:28.669Z,4.7
2022-11-22T17:23:44.958Z,4.6
2022-11-22T17:25:01.252Z,4.7
2022-11-22T17:26:17.552Z,4.6
2022-11-22T17:27:33.837Z,4.6
2022-11-22T17:28:50.149Z,4.6
2022-11-22T17:30:06.436Z,4.6
2022-11-22T17:31:21.742Z,4.6
2022-11-22T17:32:38.027Z,4.6
2022-11-22T17:33:54.320Z,4.6
2022-11-22T17:35:10.621Z,4.5
2022-11-22T17:36:26.906Z,4.5
2022-11-22T17:37:43.198Z,4.5
2022-11-22T17:38:59.492Z,4.5
2022-11-22T17:40:15.786Z,4.5
2022-11-22T17:41:32.092Z,4.5
2022-11-22T17:42:48.375Z,4.5
2022-11-22T17:45:20.961Z,4.4
2022-11-22T17:46:37.252Z,4.4
2022-11-22T17:47:52.556Z,4.4
2022-11-22T17:49:08.864Z,4.4
2022-11-22T17:50:25.156Z,4.4
2022-11-22T17:51:41.438Z,4.3
2022-11-22T17:52:57.748Z,4.4
2022-11-22T17:54:14.039Z,4.3
2022-11-22T17:55:30.335Z,4.3
2022-11-22T17:56:46.621Z,4.2
2022-11-22T17:58:02.912Z,4.2
2022-11-22T17:59:19.211Z,4.2
2022-11-22T18:00:35.503Z,4.1
2022-11-22T18:01:51.785Z,4
2022-11-22T18:03:08.087Z,4
2022-11-22T18:04:23.398Z,4
2022-11-22T18:05:39.683Z,4
2022-11-22T18:06:55.970Z,3.9
2022-11-22T18:08:12.272Z,3.8
2022-11-22T18:09:28.562Z,3.8
2022-11-22T18:10:44.854Z,3.8